Time,TemperatureF,DewpointF,PressureIn,WindDirection,WindDirectionDegrees,WindSpeedMPH,WindSpeedGustMPH,Humidity,HourlyPrecipIn,Conditions,Clouds,dailyrainin,SoftwareType,DateUTC
2013-10-04 00:29:00,67.0,62.0,29.88,East,92,0.0,0.0,83,0.00,,,0.46,,2013-10-04 05:29:00,
2013-10-04 00:58:00,67.0,62.0,29.85,East,98,0.0,2.0,84,0.00,,,0.46,,2013-10-04 05:58:00,
2013-10-04 01:17:00,67.0,62.0,29.86,East,100,0.0,1.0,84,0.00,,,0.46,,2013-10-04 06:17:00,
2013-10-04 01:26:00,68.0,63.0,29.86,SSW,213,1.0,4.0,83,0.00,,,0.21,,2013-10-04 06:26:00,
2013-10-04 01:57:00,69.0,63.0,29.88,NE,46,0.0,2.0,82,0.00,,,0.21,,2013-10-04 06:57:00,
2013-10-04 02:16:00,69.0,63.0,29.89,NW,323,2.0,12.0,81,0.00,,,0.21,,2013-10-04 07:16:00,
2013-10-04 02:25:00,70.0,64.0,29.88,West,267,1.0,5.0,81,0.00,,,0.19,,2013-10-04 07:25:00,
2013-10-04 02:57:00,69.0,62.0,29.84,SSW,193,1.0,5.0,79,0.00,,,0.19,,2013-10-04 07:57:00,
2013-10-04 03:25:00,70.0,65.0,29.85,WNW,288,0.0,5.0,84,0.00,,,0.19,,2013-10-04 08:25:00,
2013-10-04 03:57:00,70.0,65.0,29.86,NE,48,0.0,2.0,85,0.00,,,0.19,,2013-10-04 08:57:00,
2013-10-04 04:15:00,70.0,65.0,29.87,WSW,240,0.0,5.0,84,0.00,,,0.19,,2013-10-04 09:15:00,
2013-10-04 04:25:00,70.0,65.0,29.88,ESE,121,0.0,1.0,84,0.00,,,0.19,,2013-10-04 09:25:00,
2013-10-04 05:00:00,69.0,64.0,29.89,ESE,121,0.0,1.0,85,0.00,,,0.19,,2013-10-04 10:00:00,
2013-10-04 05:19:00,69.0,64.0,29.89,ESE,121,0.0,0.0,85,0.00,,,0.19,,2013-10-04 10:19:00,
2013-10-04 05:28:00,69.0,64.0,29.88,SSE,161,0.0,0.0,85,0.00,,,0.19,,2013-10-04 10:28:00,
2013-10-04 06:00:00,68.0,64.0,29.89,SSE,161,0.0,0.0,86,0.00,,,0.19,,2013-10-04 11:00:00,
2013-10-04 06:18:00,68.0,64.0,29.90,SSE,161,0.0,0.0,86,0.00,,,0.19,,2013-10-04 11:18:00,
2013-10-04 06:28:00,67.0,63.0,29.90,SSE,161,0.0,0.0,86,0.00,,,0.19,,2013-10-04 11:28:00,
2013-10-04 06:59:00,66.0,62.0,29.91,SSE,161,0.0,0.0,86,0.01,,,0.20,,2013-10-04 11:59:00,
2013-10-04 07:18:00,66.0,62.0,29.90,SSE,161,0.0,0.0,87,0.01,,,0.20,,2013-10-04 12:18:00,
2013-10-04 07:28:00,66.0,62.0,29.90,SSE,161,0.0,0.0,87,0.01,,,0.20,,2013-10-04 12:28:00,
2013-10-04 07:59:00,66.0,62.0,29.91,SSE,161,0.0,0.0,88,0.00,,,0.20,,2013-10-04 12:59:00,
2013-10-04 08:18:00,67.0,64.0,29.91,SSE,161,0.0,0.0,89,0.00,,,0.20,,2013-10-04 13:18:00,
2013-10-04 08:27:00,67.0,64.0,29.92,SSE,161,0.0,0.0,89,0.00,,,0.19,,2013-10-04 13:27:00,
2013-10-04 08:47:00,68.0,65.0,29.93,SSE,161,0.0,3.0,89,0.00,,,0.19,,2013-10-04 13:47:00,
2013-10-04 08:59:00,68.0,64.0,29.93,SSE,161,0.0,0.0,88,0.00,,,0.19,,2013-10-04 13:59:00,
2013-10-04 09:18:00,68.0,64.0,29.92,SSE,161,0.0,0.0,88,0.00,,,0.19,,2013-10-04 14:18:00,
2013-10-04 09:27:00,68.0,64.0,29.93,SSE,161,0.0,0.0,88,0.00,,,0.19,,2013-10-04 14:27:00,
2013-10-04 09:47:00,68.0,65.0,29.92,SSE,161,0.0,0.0,89,0.00,,,0.19,,2013-10-04 14:47:00,
2013-10-04 09:59:00,68.0,65.0,29.91,SSE,161,0.0,1.0,89,0.00,,,0.19,,2013-10-04 14:59:00,
2013-10-04 10:18:00,69.0,66.0,29.92,SSE,161,0.0,0.0,89,0.00,,,0.19,,2013-10-04 15:18:00,
2013-10-04 10:28:00,69.0,66.0,29.91,SSE,161,0.0,0.0,89,0.00,,,0.19,,2013-10-04 15:28:00,
2013-10-04 10:48:00,70.0,67.0,29.92,SSE,161,0.0,0.0,89,0.00,,,0.19,,2013-10-04 15:48:00,
2013-10-04 11:00:00,70.0,67.0,29.93,SSE,161,0.0,1.0,89,0.00,,,0.19,,2013-10-04 16:00:00,
2013-10-04 11:19:00,70.0,67.0,29.92,SSE,161,0.0,0.0,89,0.00,,,0.19,,2013-10-04 16:19:00,
2013-10-04 11:28:00,70.0,67.0,29.93,SSE,161,0.0,0.0,89,0.00,,,0.19,,2013-10-04 16:28:00,
2013-10-04 11:48:00,70.0,67.0,29.93,SSE,161,0.0,0.0,89,0.00,,,0.19,,2013-10-04 16:48:00,
2013-10-04 12:00:00,71.0,68.0,29.95,SSE,161,0.0,0.0,89,0.00,,,0.19,,2013-10-04 17:00:00,
2013-10-04 12:28:00,71.0,68.0,29.94,SSE,161,0.0,0.0,89,0.00,,,0.19,,2013-10-04 17:28:00,
2013-10-04 13:01:00,68.0,62.0,29.95,ESE,119,0.0,19.0,81,0.59,,,0.78,,2013-10-04 18:01:00,
2013-10-04 13:19:00,67.0,62.0,29.94,SSW,200,0.0,4.0,85,0.71,,,0.90,,2013-10-04 18:19:00,
2013-10-04 13:29:00,68.0,65.0,29.92,ESE,107,0.0,1.0,89,0.72,,,0.75,,2013-10-04 18:29:00,
2013-10-04 13:49:00,70.0,67.0,29.92,ESE,107,0.0,1.0,89,0.71,,,0.75,,2013-10-04 18:49:00,
2013-10-04 13:56:00,72.0,69.0,29.90,ESE,107,0.0,1.0,90,0.11,,,0.75,,2013-10-04 18:56:00,
2013-10-04 14:12:00,73.0,70.0,29.90,ESE,107,0.0,1.0,89,0.01,,,0.75,,2013-10-04 19:12:00,
2013-10-04 14:22:00,74.0,70.0,29.88,ESE,107,0.0,1.0,88,0.00,,,0.73,,2013-10-04 19:22:00,
2013-10-04 14:43:00,75.0,70.0,29.88,ESE,107,0.0,1.0,85,0.00,,,0.73,,2013-10-04 19:43:00,
2013-10-04 14:52:00,77.0,70.0,29.88,ESE,107,0.0,2.0,80,0.00,,,0.73,,2013-10-04 19:52:00,
2013-10-04 15:11:00,77.0,70.0,29.88,ESE,107,0.0,1.0,80,0.00,,,0.73,,2013-10-04 20:11:00,
2013-10-04 15:22:00,77.0,68.0,29.88,ESE,107,0.0,2.0,75,0.00,,,0.73,,2013-10-04 20:22:00,
2013-10-04 15:53:00,76.0,67.0,29.88,ESE,109,0.0,1.0,73,0.00,,,0.73,,2013-10-04 20:53:00,
2013-10-04 16:12:00,77.0,68.0,29.88,ESE,109,0.0,1.0,75,0.00,,,0.73,,2013-10-04 21:12:00,
2013-10-04 16:22:00,78.0,69.0,29.88,ESE,109,0.0,2.0,73,0.00,,,0.73,,2013-10-04 21:22:00,
2013-10-04 16:54:00,77.0,68.0,29.87,ESE,115,0.0,1.0,75,0.00,,,0.73,,2013-10-04 21:54:00,
2013-10-04 17:23:00,77.0,68.0,29.86,ESE,115,0.0,1.0,74,0.00,,,0.73,,2013-10-04 22:23:00,
2013-10-04 17:42:00,77.0,67.0,29.86,ESE,111,0.0,4.0,72,0.00,,,0.73,,2013-10-04 22:42:00,
2013-10-04 17:52:00,77.0,67.0,29.86,ESE,104,1.0,4.0,72,0.00,,,0.73,,2013-10-04 22:52:00,
2013-10-04 18:22:00,77.0,68.0,29.86,SE,124,0.0,1.0,73,0.00,,,0.73,,2013-10-04 23:22:00,
2013-10-04 18:53:00,75.0,67.0,29.85,SE,124,0.0,0.0,76,0.00,,,0.73,,2013-10-04 23:53:00,
2013-10-04 19:12:00,73.0,66.0,29.86,SE,124,0.0,0.0,79,0.00,,,0.73,,2013-10-05 00:12:00,
2013-10-04 19:22:00,72.0,66.0,29.85,SE,124,0.0,1.0,81,0.00,,,0.73,,2013-10-05 00:22:00,
2013-10-04 19:42:00,71.0,66.0,29.85,SE,124,0.0,0.0,83,0.00,,,0.73,,2013-10-05 00:42:00,
2013-10-04 19:53:00,71.0,66.0,29.86,SE,124,0.0,0.0,84,0.00,,,0.73,,2013-10-05 00:53:00,
2013-10-04 20:11:00,71.0,66.0,29.86,SE,124,0.0,0.0,85,0.00,,,0.73,,2013-10-05 01:11:00,
2013-10-04 20:21:00,70.0,65.0,29.86,SE,124,0.0,1.0,85,0.00,,,0.73,,2013-10-05 01:21:00,
2013-10-04 20:43:00,71.0,66.0,29.86,ESE,123,0.0,2.0,84,0.00,,,0.73,,2013-10-05 01:43:00,
2013-10-04 20:52:00,71.0,65.0,29.86,ESE,123,0.0,2.0,82,0.00,,,0.73,,2013-10-05 01:52:00,
2013-10-04 21:11:00,71.0,65.0,29.86,ESE,123,0.0,1.0,81,0.00,,,0.73,,2013-10-05 02:11:00,
2013-10-04 21:22:00,71.0,65.0,29.87,ESE,123,0.0,0.0,81,0.00,,,0.73,,2013-10-05 02:22:00,
2013-10-04 21:42:00,71.0,65.0,29.86,ESE,120,0.0,2.0,81,0.00,,,0.73,,2013-10-05 02:42:00,
2013-10-04 21:52:00,71.0,65.0,29.85,SE,131,0.0,2.0,81,0.00,,,0.73,,2013-10-05 02:52:00,
2013-10-04 22:23:00,72.0,65.0,29.86,ESE,121,0.0,1.0,79,0.00,,,0.73,,2013-10-05 03:23:00,
2013-10-04 22:45:00,73.0,66.0,29.86,ESE,118,0.0,2.0,78,0.00,,,0.73,,2013-10-05 03:45:00,
2013-10-04 22:55:00,73.0,66.0,29.87,ESE,118,0.0,1.0,78,0.00,,,0.73,,2013-10-05 03:55:00,
2013-10-04 23:14:00,73.0,65.0,29.86,ESE,106,0.0,4.0,77,0.00,,,0.73,,2013-10-05 04:14:00,
2013-10-04 23:24:00,74.0,66.0,29.86,SE,132,0.0,1.0,76,0.00,,,0.73,,2013-10-05 04:24:00,
2013-10-04 23:43:00,74.0,66.0,29.87,South,184,1.0,5.0,76,0.00,,,0.73,,2013-10-05 04:43:00,
2013-10-04 23:53:00,74.0,66.0,29.86,ESE,112,0.0,4.0,75,0.00,,,0.73,,2013-10-05 04:53:00,